Time;durP1;ratioP1;P1;durP2;ratioP2;P2;SDS_P1;SDS_P2;PMS_P1;PMS_P2;Temp;Humidity;BMP_temperature;BMP_pressure;BME280_temperature;BME280_humidity;BME280_pressure;Samples;Min_cycle;Max_cycle;Signal;HPM_P1;HPM_P2
2022/05/21 00:01:40;;;;;;;3.20;1.40;;;;;;;19.48;77.12;98506.04;105317;1268;60857;-74
2022/05/21 00:04:07;;;;;;;3.70;1.30;;;;;;;19.36;77.88;98484.33;105292;1268;61943;-73
2022/05/21 00:06:34;;;;;;;2.80;1.50;;;;;;;19.25;78.57;98480.23;105371;1268;61346;-73
2022/05/21 00:09:00;;;;;;;2.20;1.20;;;;;;;19.16;79.78;98494.62;105320;1268;73609;-74
2022/05/21 00:11:26;;;;;;;1.50;1.40;;;;;;;19.06;80.57;98505.55;105279;1268;61368;-72
2022/05/21 00:13:56;;;;;;;3.10;1.90;;;;;;;18.98;81.30;98492.33;105310;1268;61300;-74
2022/05/21 00:16:23;;;;;;;4.40;2.00;;;;;;;18.90;82.03;98478.62;104946;1268;76276;-74
2022/05/21 00:18:49;;;;;;;2.60;1.50;;;;;;;18.83;83.06;98470.84;105280;1268;69197;-74
2022/05/21 00:21:16;;;;;;;2.10;1.30;;;;;;;18.78;83.71;98470.34;105283;1268;73849;-74
2022/05/21 00:23:43;;;;;;;4.00;1.90;;;;;;;18.73;84.22;98462.73;105274;1268;61284;-73
2022/05/21 00:26:14;;;;;;;1.80;1.40;;;;;;;18.69;84.44;98444.73;105309;1268;61318;-74
2022/05/21 00:28:43;;;;;;;3.60;1.40;;;;;;;18.65;84.86;98429.77;105310;1268;76664;-74
2022/05/21 00:31:13;;;;;;;4.20;1.40;;;;;;;18.63;84.90;98418.44;105336;1268;69175;-75
2022/05/21 00:33:40;;;;;;;3.60;1.30;;;;;;;18.61;84.85;98409.73;105402;1268;73351;-73
2022/05/21 00:36:08;;;;;;;1.50;1.20;;;;;;;18.60;84.78;98396.52;105045;1268;61339;-74
2022/05/21 00:38:36;;;;;;;2.60;1.50;;;;;;;18.59;85.04;98393.88;105324;1268;61445;-73
2022/05/21 00:41:04;;;;;;;4.20;1.40;;;;;;;18.57;85.43;98407.85;105316;1268;75657;-74
2022/05/21 00:43:54;;;;;;;3.90;1.30;;;;;;;18.52;85.58;98409.56;104848;1268;208123;-75
2022/05/21 00:46:26;;;;;;;1.50;1.30;;;;;;;18.51;85.74;98403.77;105189;1269;70639;-73
2022/05/21 00:49:14;;;;;;;1.60;1.40;;;;;;;18.51;85.94;98398.94;105299;1268;61372;-73
2022/05/21 00:52:07;;;;;;;1.50;1.40;;;;;;;18.51;85.89;98396.62;105338;1268;61843;-73
2022/05/21 00:54:41;;;;;;;2.40;1.40;;;;;;;18.50;85.73;98394.73;105280;1268;75372;-72
2022/05/21 00:57:14;;;;;;;2.30;1.20;;;;;;;18.50;85.62;98392.90;105301;1268;67512;-74
2022/05/21 00:59:50;;;;;;;1.70;1.30;;;;;;;18.52;85.54;98396.65;105300;1268;73228;-73
2022/05/21 01:02:21;;;;;;;2.60;1.40;;;;;;;18.53;85.55;98399.29;105035;1268;61315;-76
2022/05/21 01:04:48;;;;;;;;;;;;;;;18.52;85.54;98401.91;105353;1268;61296;-74
2022/05/21 01:07:15;;;;;;;1.40;1.30;;;;;;;18.49;85.25;98401.20;105312;1268;75150;-74
2022/05/21 01:09:53;;;;;;;1.50;1.20;;;;;;;18.46;85.38;98407.44;105317;1268;69230;-75
2022/05/21 01:12:27;;;;;;;2.30;1.40;;;;;;;18.42;85.13;98406.69;104978;1268;71877;-73
2022/05/21 01:15:02;;;;;;;3.40;1.60;;;;;;;18.39;84.95;98417.48;105354;1268;61348;-73
2022/05/21 01:17:28;;;;;;;1.60;1.50;;;;;;;18.38;84.80;98417.75;105320;1268;61423;-73
2022/05/21 01:20:00;;;;;;;2.50;1.50;;;;;;;18.38;84.83;98420.71;105286;1267;61384;-73
2022/05/21 01:22:32;;;;;;;2.60;1.80;;;;;;;18.42;84.75;98430.13;105291;1268;69293;-75
2022/05/21 01:24:58;;;;;;;1.80;1.40;;;;;;;18.48;84.39;98428.24;105180;1268;73438;-73
2022/05/21 01:27:27;;;;;;;2.20;1.10;;;;;;;18.50;84.22;98426.93;105293;1267;61364;-73
2022/05/21 01:29:55;;;;;;;3.00;1.40;;;;;;;18.50;84.19;98425.55;105329;1268;61287;-74
2022/05/21 01:32:22;;;;;;;3.70;1.80;;;;;;;18.48;84.02;98421.02;105303;1268;75256;-73
2022/05/21 01:34:48;;;;;;;2.70;1.50;;;;;;;18.46;84.01;98425.61;105013;1268;70096;-74
2022/05/21 01:37:15;;;;;;;3.20;1.50;;;;;;;18.44;84.01;98439.45;105290;1268;61269;-73
2022/05/21 01:39:41;;;;;;;2.20;1.50;;;;;;;18.48;84.03;98435.23;105299;1268;61357;-74
2022/05/21 01:42:08;;;;;;;2.50;1.90;;;;;;;18.48;84.11;98434.89;105298;1268;61374;-75
2022/05/21 01:44:38;;;;;;;2.40;1.30;;;;;;;18.47;84.13;98433.61;105315;1268;76125;-74
2022/05/21 01:47:06;;;;;;;3.30;1.80;;;;;;;18.48;84.36;98441.71;105033;1268;69483;-73
2022/05/21 01:49:33;;;;;;;1.40;1.30;;;;;;;18.51;84.40;98444.84;105301;1268;73318;-74
2022/05/21 01:52:01;;;;;;;4.10;1.90;;;;;;;18.55;84.92;98452.48;105294;1268;61316;-74
2022/05/21 01:54:28;;;;;;;3.30;2.10;;;;;;;18.59;84.79;98452.42;105290;1268;61959;-74
2022/05/21 01:56:55;;;;;;;2.30;1.50;;;;;;;18.59;84.56;98440.00;105297;1267;74634;-73
2022/05/21 01:59:21;;;;;;;4.50;2.40;;;;;;;18.55;84.59;98437.66;105346;1268;68623;-73
2022/05/21 02:01:48;;;;;;;1.90;1.60;;;;;;;18.50;84.69;98446.36;105264;1268;61150;-72
2022/05/21 02:04:16;;;;;;;4.20;1.70;;;;;;;18.46;85.04;98447.67;105264;1268;61318;-76
2022/05/21 02:06:43;;;;;;;1.90;1.70;;;;;;;18.42;84.96;98456.14;105305;1268;61277;-75
2022/05/21 02:09:10;;;;;;;2.40;1.90;;;;;;;18.39;84.96;98452.92;105312;1268;76418;-75
2022/05/21 02:11:37;;;;;;;3.00;1.90;;;;;;;18.35;84.84;98452.41;105278;1268;68395;-74
2022/05/21 02:14:06;;;;;;;3.40;1.80;;;;;;;18.31;85.15;98451.45;105308;1268;73476;-74
2022/05/21 02:16:36;;;;;;;2.20;1.90;;;;;;;18.25;85.37;98454.95;105266;1268;61419;-74
2022/05/21 02:19:05;;;;;;;3.20;2.10;;;;;;;18.23;85.55;98457.61;105307;1268;61214;-73
2022/05/21 02:21:34;;;;;;;3.00;2.00;;;;;;;18.19;85.54;98457.40;105356;1267;75227;-74
2022/05/21 02:24:00;;;;;;;3.80;1.60;;;;;;;18.17;85.72;98450.65;105330;1268;68864;-75
2022/05/21 02:26:27;;;;;;;2.90;1.80;;;;;;;18.14;85.98;98453.34;105248;1268;61219;-74
2022/05/21 02:28:54;;;;;;;4.10;1.70;;;;;;;18.13;86.29;98455.59;105298;1268;61364;-74
2022/05/21 02:31:21;;;;;;;4.30;2.20;;;;;;;18.14;86.49;98456.91;105321;1268;61365;-74
2022/05/21 02:33:47;;;;;;;3.50;1.90;;;;;;;18.14;86.69;98454.69;105316;1268;75357;-74
2022/05/21 02:36:14;;;;;;;5.80;2.30;;;;;;;18.14;86.86;98456.52;105263;1268;61322;-74
2022/05/21 02:41:26;;;;;;;2.10;1.80;;;;;;;18.13;87.76;98459.16;105286;1268;61384;-74
2022/05/21 02:43:52;;;;;;;3.90;2.00;;;;;;;18.14;87.88;98459.23;105306;1268;61501;-74
2022/05/21 02:46:19;;;;;;;3.60;2.10;;;;;;;18.17;88.42;98458.37;105249;1268;61176;-74
2022/05/21 02:48:45;;;;;;;4.50;2.20;;;;;;;18.20;88.38;98460.16;105305;1268;61269;-75
2022/05/21 02:51:12;;;;;;;4.00;2.00;;;;;;;18.23;88.45;98460.64;105278;1268;61236;-74
2022/05/21 02:53:38;;;;;;;3.90;2.20;;;;;;;18.26;88.33;98466.96;105250;1268;61408;-74
2022/05/21 02:56:08;;;;;;;2.90;2.00;;;;;;;18.28;88.62;98462.79;105313;1268;61323;-73
2022/05/21 02:58:35;;;;;;;2.00;1.90;;;;;;;18.32;88.77;98459.52;105295;1268;75067;-75
2022/05/21 03:01:02;;;;;;;2.50;2.00;;;;;;;18.35;88.87;98458.61;105310;1268;68055;-74
2022/05/21 03:03:28;;;;;;;5.20;2.90;;;;;;;18.39;89.36;98453.10;105281;1268;73644;-74
2022/05/21 03:05:57;;;;;;;3.50;2.40;;;;;;;18.44;88.87;98451.48;105150;1269;61182;-74
2022/05/21 03:11:28;;;;;;;4.60;3.00;;;;;;;18.52;88.90;98439.33;104822;1274;75446;-73
2022/05/21 03:13:55;;;;;;;5.30;3.50;;;;;;;18.55;88.98;98439.55;104824;1274;61451;-74
2022/05/21 03:16:21;;;;;;;4.20;3.10;;;;;;;18.58;88.87;98440.77;105014;1268;61400;-73
2022/05/21 03:18:48;;;;;;;7.90;3.20;;;;;;;18.62;88.81;98438.42;105242;1268;61456;-74
2022/05/21 03:21:14;;;;;;;3.90;2.90;;;;;;;18.64;88.54;98432.98;105301;1268;61167;-74
2022/05/21 03:23:41;;;;;;;5.60;3.30;;;;;;;18.66;88.67;98442.30;105259;1268;61179;-74
2022/05/21 03:26:08;;;;;;;5.30;3.30;;;;;;;18.67;88.56;98442.22;105282;1268;61400;-75
2022/05/21 03:28:34;;;;;;;7.30;3.40;;;;;;;18.68;88.84;98446.61;104996;1268;74845;-73
2022/05/21 03:31:02;;;;;;;6.40;3.40;;;;;;;18.70;89.00;98441.48;105299;1268;61313;-75
2022/05/21 03:33:28;;;;;;;5.80;2.90;;;;;;;18.72;88.79;98440.69;105395;1268;61376;-73
2022/05/21 03:35:55;;;;;;;4.50;3.20;;;;;;;18.74;88.91;98442.33;104989;1268;61304;-72
2022/05/21 03:38:21;;;;;;;6.00;3.90;;;;;;;18.77;88.79;98443.75;105288;1268;61410;-74
2022/05/21 03:40:48;;;;;;;4.90;2.80;;;;;;;18.80;89.02;98442.59;105235;1268;61364;-73
2022/05/21 03:43:14;;;;;;;3.70;2.90;;;;;;;18.83;88.88;98438.85;105278;1268;61303;-73
2022/05/21 03:45:41;;;;;;;3.90;2.50;;;;;;;18.84;88.62;98438.45;105278;1268;61167;-74
2022/05/21 03:48:07;;;;;;;4.20;3.20;;;;;;;18.88;88.56;98437.21;105309;1268;61393;-74
2022/05/21 03:50:34;;;;;;;3.70;2.80;;;;;;;18.89;88.38;98436.86;105252;1267;61357;-74
2022/05/21 03:53:01;;;;;;;5.00;3.40;;;;;;;18.92;88.38;98438.89;105240;1268;72712;-74
2022/05/21 03:55:30;;;;;;;4.00;3.10;;;;;;;18.96;88.08;98439.56;105269;1268;61393;-74
2022/05/21 03:57:57;;;;;;;4.40;3.10;;;;;;;18.99;88.14;98435.44;105469;1268;62175;-74
2022/05/21 04:00:23;;;;;;;4.70;3.10;;;;;;;19.05;87.65;98436.89;105290;1268;74216;-73
2022/05/21 04:02:50;;;;;;;4.70;3.00;;;;;;;19.10;87.41;98440.73;105281;1268;61252;-74
2022/05/21 04:05:17;;;;;;;6.60;3.50;;;;;;;19.15;87.19;98442.19;105268;1268;73557;-74
2022/05/21 04:07:43;;;;;;;5.90;3.20;;;;;;;19.20;86.79;98449.16;105296;1268;61344;-75
2022/05/21 04:10:12;;;;;;;6.50;3.50;;;;;;;19.24;86.61;98444.94;105281;1268;61376;-74
2022/05/21 04:12:38;;;;;;;5.80;3.40;;;;;;;19.26;86.53;98442.74;105316;1268;74633;-75
2022/05/21 04:15:06;;;;;;;5.80;3.60;;;;;;;19.28;86.44;98447.52;105314;1268;69387;-74
2022/05/21 04:17:33;;;;;;;4.20;3.10;;;;;;;19.29;86.32;98452.42;105002;1268;73272;-74
2022/05/21 04:20:00;;;;;;;5.50;3.30;;;;;;;19.31;86.12;98452.27;105295;1268;61303;-75
2022/05/21 04:22:27;;;;;;;5.90;3.30;;;;;;;19.31;85.93;98462.15;105293;1268;61207;-74
2022/05/21 04:24:53;;;;;;;5.10;3.10;;;;;;;19.31;86.16;98468.30;105295;1268;61354;-73
2022/05/21 04:27:20;;;;;;;6.40;3.80;;;;;;;19.30;86.06;98470.70;105301;1268;70610;-74
2022/05/21 04:29:46;;;;;;;4.90;3.50;;;;;;;19.30;86.03;98470.73;105283;1267;61454;-73
2022/05/21 04:32:13;;;;;;;5.00;3.80;;;;;;;19.27;86.11;98474.24;105063;1268;61462;-72
2022/05/21 04:34:40;;;;;;;5.10;3.30;;;;;;;19.24;86.33;98479.98;105311;1268;61348;-73
2022/05/21 04:37:06;;;;;;;4.60;3.50;;;;;;;19.23;86.64;98480.16;105068;1268;61331;-74
2022/05/21 04:39:33;;;;;;;5.20;3.20;;;;;;;19.23;86.84;98481.17;105332;1268;61308;-75
2022/05/21 04:42:00;;;;;;;7.60;3.50;;;;;;;19.24;86.54;98483.47;105059;1268;61317;-74
2022/05/21 04:44:31;;;;;;;5.20;3.20;;;;;;;19.25;87.07;98488.52;105261;1268;61282;-74
2022/05/21 04:46:58;;;;;;;7.80;3.40;;;;;;;19.30;86.97;98490.70;105302;1268;61243;-74
2022/05/21 04:49:25;;;;;;;5.40;3.60;;;;;;;19.35;86.68;98489.30;105277;1268;75142;-74
2022/05/21 04:51:51;;;;;;;4.10;3.50;;;;;;;19.36;86.66;98483.52;105187;1268;70227;-73
2022/05/21 04:54:18;;;;;;;6.40;3.00;;;;;;;19.36;86.80;98484.98;105575;1268;61361;-73
2022/05/21 04:56:44;;;;;;;5.80;3.20;;;;;;;19.37;86.69;98484.55;105307;1268;61167;-74
2022/05/21 04:59:12;;;;;;;6.50;3.20;;;;;;;19.37;86.85;98495.13;105526;1267;61277;-74
2022/05/21 05:01:41;;;;;;;5.30;3.50;;;;;;;19.36;87.56;98503.21;105586;1268;75136;-73
2022/05/21 05:04:08;;;;;;;4.70;3.50;;;;;;;19.29;89.27;98515.54;105418;1268;68811;-73
2022/05/21 05:06:36;;;;;;;7.30;4.20;;;;;;;19.14;90.68;98526.45;105647;1268;73764;-73
2022/05/21 05:09:04;;;;;;;8.20;4.20;;;;;;;18.95;93.31;98544.23;105526;1268;61721;-73
2022/05/21 05:11:31;;;;;;;10.20;4.90;;;;;;;18.70;95.86;98550.48;105332;1268;61547;-73
2022/05/21 05:13:57;;;;;;;8.60;4.90;;;;;;;18.46;99.92;98553.14;105026;1268;61205;-73
2022/05/21 05:16:23;;;;;;;9.30;5.70;;;;;;;18.26;100.00;98558.84;105269;1268;61370;-72
2022/05/21 05:18:50;;;;;;;8.70;5.70;;;;;;;18.13;100.00;98551.40;105288;1268;61255;-73
2022/05/21 05:21:17;;;;;;;11.40;5.70;;;;;;;18.06;100.00;98553.93;105298;1266;61385;-74
2022/05/21 05:23:43;;;;;;;12.30;6.10;;;;;;;18.07;100.00;98552.98;105273;1268;61264;-74
2022/05/21 05:26:10;;;;;;;8.10;6.00;;;;;;;18.11;100.00;98549.63;105243;1268;61247;-74
2022/05/21 05:28:36;;;;;;;11.70;6.50;;;;;;;18.12;100.00;98542.66;105355;1268;61289;-73
2022/05/21 05:31:03;;;;;;;9.70;6.10;;;;;;;18.13;100.00;98541.17;105269;1267;61410;-74
2022/05/21 05:33:30;;;;;;;10.90;6.10;;;;;;;18.13;100.00;98538.86;105297;1268;61240;-74
2022/05/21 05:35:56;;;;;;;6.40;5.50;;;;;;;18.18;100.00;98545.99;105300;1267;61252;-73
2022/05/21 05:38:23;;;;;;;7.20;5.70;;;;;;;18.32;100.00;98550.84;105273;1268;61177;-73
2022/05/21 05:40:51;;;;;;;8.80;5.40;;;;;;;18.49;100.00;98546.10;105504;1268;69531;-74
2022/05/21 05:43:20;;;;;;;7.70;5.30;;;;;;;18.72;100.00;98545.97;105298;1268;72662;-74
2022/05/21 05:45:53;;;;;;;6.60;4.70;;;;;;;18.81;100.00;98547.52;105408;1268;61274;-74
2022/05/21 05:48:19;;;;;;;8.80;5.10;;;;;;;18.91;100.00;98551.13;105398;1266;61342;-73
2022/05/21 05:50:46;;;;;;;8.10;5.40;;;;;;;19.07;100.00;98550.86;105318;1268;61256;-73
2022/05/21 05:53:13;;;;;;;8.80;5.20;;;;;;;19.21;100.00;98554.52;105323;1267;61367;-73
2022/05/21 05:55:41;;;;;;;8.30;5.20;;;;;;;19.24;100.00;98561.36;105291;1267;73271;-74
2022/05/21 06:00:55;;;;;;;5.80;5.20;;;;;;;19.51;100.00;98555.52;105292;1267;61301;-74
2022/05/21 06:03:21;;;;;;;6.10;5.10;;;;;;;19.70;100.00;98552.78;105306;1268;75624;-75
2022/05/21 06:05:49;;;;;;;6.70;4.90;;;;;;;19.76;100.00;98554.60;105264;1268;67848;-73
2022/05/21 06:08:16;;;;;;;9.30;4.50;;;;;;;19.84;100.00;98563.48;105371;1268;72563;-74
2022/05/21 06:10:45;;;;;;;8.90;4.80;;;;;;;19.91;100.00;98567.55;105193;1268;61239;-75
2022/05/21 06:13:13;;;;;;;7.70;4.40;;;;;;;20.02;100.00;98566.48;105299;1267;61198;-73
2022/05/21 06:15:41;;;;;;;5.90;3.90;;;;;;;20.16;100.00;98564.73;105079;1268;75123;-74
2022/05/21 06:18:10;;;;;;;7.10;4.20;;;;;;;21.06;100.00;98564.94;105289;1268;69204;-74
2022/05/21 06:20:37;;;;;;;5.80;3.80;;;;;;;21.77;98.42;98569.66;105498;1267;72171;-73
2022/05/21 06:23:04;;;;;;;6.40;4.30;;;;;;;22.38;96.05;98570.66;105233;1268;61306;-75
2022/05/21 06:25:33;;;;;;;4.60;4.20;;;;;;;22.98;91.95;98572.82;105072;1268;61469;-74
2022/05/21 06:28:01;;;;;;;9.00;3.90;;;;;;;23.37;89.07;98573.05;105320;1268;75155;-74
2022/05/21 06:30:31;;;;;;;5.00;3.60;;;;;;;23.85;87.59;98570.95;105341;1268;69212;-74
2022/05/21 06:32:59;;;;;;;3.90;3.50;;;;;;;24.05;85.73;98572.99;105433;1268;72473;-75
2022/05/21 06:35:27;;;;;;;6.40;3.70;;;;;;;24.07;85.27;98574.25;105094;1268;61415;-74
2022/05/21 06:37:54;;;;;;;5.80;3.90;;;;;;;24.06;81.92;98578.40;105298;1268;61332;-76
2022/05/21 06:40:21;;;;;;;4.40;3.30;;;;;;;24.16;81.72;98581.05;105046;1268;76082;-75
2022/05/21 06:42:47;;;;;;;5.90;3.70;;;;;;;24.44;78.63;98580.60;105313;1268;70641;-76
2022/05/21 06:45:14;;;;;;;7.80;3.60;;;;;;;24.62;77.72;98586.89;105258;1268;61233;-75
2022/05/21 06:47:40;;;;;;;5.60;3.50;;;;;;;24.62;78.03;98587.27;105278;1268;61208;-73
2022/05/21 06:50:07;;;;;;;4.00;2.50;;;;;;;24.91;75.06;98588.85;105295;1268;61291;-73
2022/05/21 06:52:36;;;;;;;4.60;2.50;;;;;;;24.40;71.89;98609.19;105248;1268;75153;-74
2022/05/21 06:55:03;;;;;;;5.80;2.40;;;;;;;23.59;68.91;98629.79;105049;1268;67489;-73
2022/05/21 06:57:30;;;;;;;3.90;2.50;;;;;;;22.86;67.78;98634.25;105082;1268;73538;-73
2022/05/21 06:59:57;;;;;;;4.50;2.30;;;;;;;22.29;68.30;98639.69;105251;1268;61195;-74
2022/05/21 07:02:24;;;;;;;2.60;1.70;;;;;;;22.13;69.43;98648.80;105058;1268;61404;-74
2022/05/21 07:07:43;;;;;;;5.20;2.30;;;;;;;21.60;70.61;98657.00;105318;1268;69134;-73
2022/05/21 07:10:17;;;;;;;5.70;3.10;;;;;;;21.79;69.69;98666.86;104913;1268;74128;-73
2022/05/21 07:12:43;;;;;;;3.20;2.40;;;;;;;21.70;69.33;98664.66;105446;1268;62737;-73
2022/05/21 07:15:11;;;;;;;3.90;2.30;;;;;;;21.66;69.82;98663.72;105287;1268;61803;-74
2022/05/21 07:17:37;;;;;;;3.40;2.20;;;;;;;21.64;68.74;98671.86;105308;1268;76076;-74
2022/05/21 07:20:10;;;;;;;2.80;2.30;;;;;;;21.71;68.94;98677.60;105300;1268;69208;-72
2022/05/21 07:22:45;;;;;;;2.80;1.90;;;;;;;21.41;67.78;98680.89;105081;1268;70809;-75
2022/05/21 07:25:14;;;;;;;3.40;2.00;;;;;;;21.25;67.33;98679.86;105306;1268;61301;-73
2022/05/21 07:27:42;;;;;;;3.10;2.00;;;;;;;21.16;67.72;98677.60;105368;1268;61137;-73
2022/05/21 07:30:10;;;;;;;7.80;2.20;;;;;;;21.23;68.36;98676.58;105317;1268;75400;-73
2022/05/21 07:32:37;;;;;;;4.90;1.20;;;;;;;21.34;67.32;98671.80;105062;1268;70361;-76
2022/05/21 07:35:08;;;;;;;7.40;1.70;;;;;;;21.31;65.11;98679.85;105329;1267;74157;-73
2022/05/21 07:37:35;;;;;;;2.00;1.10;;;;;;;21.25;61.25;98679.68;105303;1268;61358;-74
2022/05/21 07:40:04;;;;;;;6.60;1.00;;;;;;;21.12;61.05;98680.64;105313;1267;61275;-73
2022/05/21 07:42:32;;;;;;;0.80;0.60;;;;;;;20.99;57.36;98678.80;105325;1267;74308;-73
2022/05/21 07:44:59;;;;;;;3.40;0.80;;;;;;;20.83;57.20;98679.49;105295;1268;69200;-73
2022/05/21 07:47:25;;;;;;;5.30;1.00;;;;;;;20.78;56.76;98682.36;105291;1268;73713;-72
2022/05/21 07:49:56;;;;;;;1.70;0.60;;;;;;;20.79;56.96;98687.00;105245;1268;61290;-73
2022/05/21 07:52:25;;;;;;;4.50;1.20;;;;;;;20.72;54.63;98693.55;105437;1267;62273;-73
2022/05/21 07:54:51;;;;;;;3.70;0.70;;;;;;;20.67;55.26;98702.58;105335;1268;73427;-73
2022/05/21 07:57:18;;;;;;;2.30;0.50;;;;;;;20.74;54.59;98702.86;105296;1267;61365;-72
2022/05/21 07:59:45;;;;;;;1.60;0.50;;;;;;;20.76;54.10;98703.36;105322;1268;72784;-73
2022/05/21 08:02:14;;;;;;;4.50;1.10;;;;;;;20.87;54.76;98707.22;105338;1268;61304;-73
2022/05/21 08:04:46;;;;;;;2.20;0.70;;;;;;;20.98;54.64;98711.55;105312;1269;61153;-74
2022/05/21 08:07:13;;;;;;;4.10;0.80;;;;;;;21.12;55.06;98712.11;104980;1268;75517;-74
2022/05/21 08:09:39;;;;;;;3.60;0.70;;;;;;;21.30;55.57;98710.39;105322;1267;69144;-73
2022/05/21 08:12:08;;;;;;;2.60;0.90;;;;;;;21.39;54.54;98705.50;105288;1268;61351;-72
2022/05/21 08:14:34;;;;;;;5.70;0.80;;;;;;;21.41;52.76;98704.77;105396;1268;61333;-73
2022/05/21 08:17:01;;;;;;;4.00;0.90;;;;;;;21.40;53.62;98711.59;105267;1268;61365;-73
2022/05/21 08:19:27;;;;;;;5.40;0.90;;;;;;;21.47;52.13;98709.26;105297;1268;76037;-73
2022/05/21 08:26:56;;;;;;;4.00;0.70;;;;;;;21.46;52.00;98708.86;105208;1268;61326;-72
2022/05/21 08:27:25;;;;;;;4.80;0.50;;;;;;;21.42;51.96;98717.96;105312;1268;61282;-74
2022/05/21 08:29:52;;;;;;;2.90;0.50;;;;;;;21.46;49.36;98699.30;105299;1268;61286;-74
2022/05/21 08:32:19;;;;;;;3.70;0.60;;;;;;;21.37;48.39;98717.81;105257;1268;61255;-74
2022/05/21 08:34:45;;;;;;;5.20;0.60;;;;;;;21.37;48.67;98717.86;105282;1268;68158;-73
2022/05/21 08:37:12;;;;;;;2.20;0.70;;;;;;;21.39;48.13;98715.78;105296;1267;61173;-73
2022/05/21 08:39:39;;;;;;;2.80;0.80;;;;;;;21.43;48.81;98719.02;105292;1268;61404;-73
2022/05/21 08:42:15;;;;;;;3.10;1.00;;;;;;;21.51;49.29;98724.69;105335;1268;61261;-74
2022/05/21 08:44:48;;;;;;;4.90;0.60;;;;;;;21.61;49.22;98729.14;105306;1268;75199;-74
2022/05/21 08:47:24;;;;;;;1.90;0.30;;;;;;;21.69;47.51;98733.29;105299;1268;68521;-74
2022/05/21 08:50:00;;;;;;;1.90;0.50;;;;;;;21.59;47.24;98730.54;104984;1268;74301;-74
2022/05/21 08:53:06;;;;;;;0.90;0.60;;;;;;;21.65;48.57;98730.74;105301;1268;61385;-73
2022/05/21 08:55:43;;;;;;;2.00;0.50;;;;;;;21.78;46.68;98734.75;105324;1268;61285;-74
2022/05/21 08:58:22;;;;;;;4.60;1.00;;;;;;;21.73;47.13;98730.69;105328;1268;75167;-73
2022/05/21 09:00:48;;;;;;;6.20;0.70;;;;;;;21.72;46.98;98730.04;105280;1268;69435;-74
2022/05/21 09:03:20;;;;;;;3.00;0.50;;;;;;;21.75;47.32;98732.73;105310;1268;73148;-75
2022/05/21 09:06:17;;;;;;;1.90;0.50;;;;;;;21.69;46.74;98732.15;105467;1268;61435;-74
2022/05/21 09:08:58;;;;;;;5.30;1.00;;;;;;;21.75;47.17;98727.04;105264;1268;61294;-74
2022/05/21 09:11:56;;;;;;;2.90;0.70;;;;;;;21.78;46.32;98727.23;105327;1268;75224;-74
2022/05/21 09:14:45;;;;;;;3.30;0.90;;;;;;;21.80;47.01;98729.85;105301;1268;69200;-72
2022/05/21 09:17:14;;;;;;;;;;;;;;;21.95;47.04;98734.48;105051;1268;73614;-74
2022/05/21 09:19:58;;;;;;;2.20;0.70;;;;;;;21.94;46.09;98734.15;105308;1268;61273;-73
2022/05/21 09:22:26;;;;;;;2.60;0.70;;;;;;;21.99;46.12;98731.15;105308;1268;61658;-74
2022/05/21 09:24:58;;;;;;;2.30;0.60;;;;;;;22.12;45.92;98728.19;105342;1268;76283;-74
2022/05/21 09:27:32;;;;;;;1.50;0.80;;;;;;;22.22;46.17;98733.70;105297;1268;70333;-75
2022/05/21 09:30:23;;;;;;;4.30;0.60;;;;;;;22.25;45.99;98743.01;105290;1268;72791;-73
2022/05/21 09:33:19;;;;;;;1.30;0.90;;;;;;;22.29;45.14;98742.70;105358;1268;61282;-74
2022/05/21 09:35:55;;;;;;;1.30;0.50;;;;;;;22.15;45.80;98738.69;105307;1268;61353;-74
2022/05/21 09:38:25;;;;;;;2.20;0.60;;;;;;;22.22;44.67;98737.50;105313;1268;74585;-74
2022/05/21 09:41:26;;;;;;;;;;;;;;;22.15;45.16;98742.00;105346;1266;69247;-73
2022/05/21 09:47:21;;;;;;;0.60;0.60;;;;;;;21.89;44.78;98745.71;104612;1276;61359;-72
2022/05/21 09:50:03;;;;;;;2.80;0.40;;;;;;;21.81;45.10;98740.35;104508;1278;61326;-74
2022/05/21 09:52:31;;;;;;;1.60;0.40;;;;;;;21.97;45.65;98734.50;104591;1277;74506;-74
2022/05/21 09:54:58;;;;;;;1.10;0.50;;;;;;;22.20;44.75;98737.58;104503;1277;69610;-73
2022/05/21 09:57:34;;;;;;;5.10;1.50;;;;;;;22.32;45.57;98737.11;104471;1278;73466;-73
2022/05/21 10:00:04;;;;;;;2.10;0.50;;;;;;;22.53;44.69;98738.86;104506;1278;61385;-73
2022/05/21 10:02:49;;;;;;;0.70;0.50;;;;;;;22.51;43.86;98738.00;104567;1278;61281;-75
2022/05/21 10:05:35;;;;;;;1.50;0.40;;;;;;;22.49;43.60;98737.41;104482;1278;75315;-73
2022/05/21 10:11:11;;;;;;;2.80;0.60;;;;;;;22.47;43.95;98735.14;104570;1278;73831;-74
2022/05/21 10:13:44;;;;;;;3.50;0.70;;;;;;;22.52;43.75;98739.98;104559;1279;61354;-73
2022/05/21 10:16:26;;;;;;;1.70;0.50;;;;;;;22.46;43.46;98738.09;104571;1279;61294;-73
2022/05/21 10:19:04;;;;;;;1.00;0.40;;;;;;;22.59;42.28;98734.90;104483;1278;75312;-73
2022/05/21 10:21:35;;;;;;;1.40;0.50;;;;;;;22.53;42.76;98734.30;105211;1270;70181;-73
2022/05/21 10:24:09;;;;;;;1.00;0.80;;;;;;;22.56;42.82;98734.86;105206;1268;74405;-73
2022/05/21 10:26:47;;;;;;;2.10;0.60;;;;;;;22.68;42.65;98726.70;105252;1268;61255;-73
2022/05/21 10:29:40;;;;;;;1.10;0.40;;;;;;;22.83;41.72;98731.14;105263;1267;61209;-73
2022/05/21 10:32:25;;;;;;;1.40;0.40;;;;;;;22.91;41.55;98728.70;105250;1268;74086;-73
2022/05/21 10:35:10;;;;;;;1.00;0.50;;;;;;;22.97;41.42;98733.29;105226;1268;69271;-73
2022/05/21 10:37:45;;;;;;;1.20;0.60;;;;;;;23.01;41.48;98733.42;105238;1268;73405;-74
2022/05/21 10:40:39;;;;;;;3.30;0.60;;;;;;;23.14;41.55;98734.73;105035;1268;61378;-73
2022/05/21 10:43:16;;;;;;;2.20;0.60;;;;;;;23.09;41.82;98733.87;105250;1268;62279;-73
2022/05/21 10:45:53;;;;;;;1.20;0.40;;;;;;;23.27;42.38;98733.67;105374;1268;75183;-73
2022/05/21 10:48:39;;;;;;;1.30;0.70;;;;;;;23.45;42.05;98730.21;105340;1268;66790;-72
2022/05/21 10:51:23;;;;;;;1.80;0.50;;;;;;;23.41;42.24;98742.05;105316;1268;73249;-73
2022/05/21 10:54:13;;;;;;;2.50;0.50;;;;;;;23.41;41.36;98739.36;105238;1268;61268;-74
2022/05/21 10:57:17;;;;;;;1.90;0.80;;;;;;;23.34;41.09;98741.50;105390;1267;61616;-74
2022/05/21 10:59:46;;;;;;;1.70;0.50;;;;;;;23.26;40.65;98734.33;105293;1268;75322;-73
2022/05/21 11:02:51;;;;;;;4.70;0.70;;;;;;;23.32;40.58;98731.64;105024;1268;66553;-73
2022/05/21 11:05:35;;;;;;;1.10;0.40;;;;;;;23.26;40.43;98733.55;105330;1268;73457;-75
2022/05/21 11:08:33;;;;;;;1.70;0.70;;;;;;;23.10;40.18;98733.29;105225;1268;61341;-74
2022/05/21 11:11:43;;;;;;;2.50;0.40;;;;;;;23.00;39.76;98733.20;105239;1268;61315;-74
2022/05/21 11:14:19;;;;;;;1.00;0.50;;;;;;;23.12;39.89;98735.09;104772;1277;75185;-73
2022/05/21 11:16:53;;;;;;;1.30;0.50;;;;;;;23.30;39.18;98729.19;104593;1276;69195;-72
2022/05/21 11:19:28;;;;;;;1.70;0.50;;;;;;;23.27;39.13;98734.92;104584;1276;73156;-72
2022/05/21 11:22:06;;;;;;;0.60;0.50;;;;;;;23.20;39.35;98729.27;104835;1277;61566;-72
2022/05/21 11:24:45;;;;;;;3.70;0.60;;;;;;;23.18;39.73;98731.85;104544;1277;61288;-73
2022/05/21 11:27:21;;;;;;;1.70;0.50;;;;;;;22.99;39.96;98737.08;104589;1277;75186;-73
2022/05/21 11:30:04;;;;;;;3.20;0.60;;;;;;;22.88;39.49;98739.83;104806;1277;69384;-73
2022/05/21 11:38:21;;;;;;;3.70;0.60;;;;;;;23.70;39.17;98719.23;104628;1276;61423;-74
2022/05/21 11:47:06;;;;;;;1.50;0.50;;;;;;;23.87;36.77;98727.61;104778;1277;74557;-73
2022/05/21 11:49:40;;;;;;;3.60;0.50;;;;;;;23.92;36.86;98728.50;104789;1277;61447;-74
2022/05/21 11:52:26;;;;;;;1.20;0.40;;;;;;;23.98;37.17;98726.00;105171;1268;61836;-73
2022/05/21 11:55:12;;;;;;;2.80;1.00;;;;;;;24.23;37.41;98722.69;105295;1268;76140;-73
2022/05/21 11:57:42;;;;;;;1.40;0.70;;;;;;;24.31;36.75;98723.23;105248;1268;69274;-73
2022/05/21 12:00:28;;;;;;;;;;;;;;;24.12;37.44;98724.07;105358;1268;73245;-73
2022/05/21 12:03:10;;;;;;;2.00;0.80;;;;;;;23.92;38.44;98731.90;104987;1269;61451;-73
2022/05/21 12:05:46;;;;;;;3.40;0.80;;;;;;;23.55;39.40;98725.29;105274;1268;61350;-71
2022/05/21 12:08:18;;;;;;;2.40;0.90;;;;;;;23.41;39.56;98732.29;105255;1268;76322;-73
2022/05/21 12:10:53;;;;;;;1.10;0.90;;;;;;;23.34;39.66;98735.92;105256;1268;69159;-73
2022/05/21 12:13:41;;;;;;;1.50;0.60;;;;;;;23.16;40.20;98745.51;104991;1273;73207;-73
2022/05/21 12:16:16;;;;;;;1.10;0.60;;;;;;;23.23;40.83;98742.46;105321;1268;61382;-73